Harrietta, Michigan
Current Conditions -  °F | °C
As of 5:34 AM on Thursday 23 Oct 2014 (Local Time) from KCAD Reporting Station
Moderate Fog Moderate Fog  
Wind Chill: 25°   Ceiling: 100
Heat Index: 25°   Visibility: 0mi
Dew Point: 24°   Wind: 0mph
Humidity: 99%   Direction: NA
Pressure: 30.21"   Gusts: NA
Location:  44.31°N, 85.7°W
Report Text: KCAD 230934Z AUTO 00000KT M1/4SM FZFG OVC001 M03/M04 A3021 RMK AO2 T10401042
Loading
Personal Weather Stations






























Interactive Weather Map
Tropical Storm Tracking
New forecast layout! Learn more

10-Day Weather Forecast

Advertisements
Track Severe Weather on mobile